Sajir — V7HL4 — position and weather

sailwx.info

Track history (hours):
 
Tides and Currents Weather Stations Pressure Air Temp Water Temp Dewpoint Dewpoint Depression Visibility Wind Speed Wind Dir Waves Ship Positions

Sajir

Last reported at 2017-Nov-26 14:37 UTC. Time now 2017-Dec-14 13:17 UTC.
Position N 30°33' E 122°14'.
Warning: this ship's position is 17 days out of date.

Length 368 m; draft 11.7 m.

Type: Ship (hazmat cat A). MMSI: 538005839.

Date/timePositionNaut miles runAvg speedWind from/ knotsBaromVisibWave heightAir tempDewpointWater temp
2017-Nov-26 14:37N 30°33' E 122°14'215.0
2017-Nov-26 14:30N 30°34' E 122°12'812.2
2017-Nov-26 13:49N 30°37' E 122°03'0 0.8
2017-Nov-26 13:24N 30°38' E 122°03'0 0.0
2017-Nov-26 12:58N 30°38' E 122°03'0 0.0
2017-Nov-26 08:22N 30°38' E 122°03'0 0.0
2017-Nov-26 07:52N 30°38' E 122°03'0 0.0
2017-Nov-26 07:28N 30°38' E 122°03'0 0.0
2017-Nov-26 02:01N 30°38' E 122°03'0 0.0
2017-Nov-26 01:58N 30°38' E 122°03'0 0.0
2017-Nov-26 01:28N 30°38' E 122°03'0 0.0
2017-Nov-26 01:00N 30°38' E 122°03'0 0.7
2017-Nov-26 00:30N 30°37' E 122°03'4 8.4
2017-Nov-26 00:00N 30°35' E 122°08'712.2
2017-Nov-25 23:27N 30°33' E 122°15'3 7.2
2017-Nov-25 23:00N 30°33' E 122°19'6 8.7
2017-Nov-25 22:20N 30°32' E 122°26'412.4
2017-Nov-25 21:59N 30°32' E 122°30'612.4
2017-Nov-25 21:28N 30°30' E 122°38'1812.1
2017-Nov-25 19:59N 30°21' E 122°56'430 9.8
2017-Nov-24 00:00N 24°13' E 118°46'815.4
2017-Nov-23 23:31N 24°09' E 118°39'815.4
2017-Nov-23 23:00N 24°04' E 118°33'715.1
2017-Nov-23 22:31N 23°59' E 118°26'815.0
2017-Nov-23 22:00N 23°55' E 118°20'914.4
2017-Nov-23 21:23N 23°50' E 118°11'  
2017-Nov-17 09:41N 01°15' E 104°05'317.1
2017-Nov-17 09:30N 01°15' E 104°02'817.1
2017-Nov-17 09:00N 01°12' E 103°53'917.3
2017-Nov-17 08:31N 01°08' E 103°46'917.3
2017-Nov-17 08:00N 01°03' E 103°39'816.1
2017-Nov-17 07:30N 01°06' E 103°32'816.3
2017-Nov-17 07:00N 01°11' E 103°25'  
Track history (hours):
 
Tides and Currents Weather Stations Pressure Air Temp Water Temp Dewpoint Dewpoint Depression Visibility Wind Speed Wind Dir Waves Ship Positions

Sajir

Last reported at 2017-Nov-26 14:37 UTC. Time now 2017-Dec-14 13:17 UTC.
Position N 30°33' E 122°14'.
Warning: this ship's position is 17 days out of date.

Length 368 m; draft 11.7 m.

Type: Ship (hazmat cat A). MMSI: 538005839.

Date/timePositionNaut miles runAvg speedWind from/ knotsBaromVisibWave heightAir tempDewpointWater temp
2017-Nov-26 14:37N 30°33' E 122°14'215.0
2017-Nov-26 14:30N 30°34' E 122°12'812.2
2017-Nov-26 13:49N 30°37' E 122°03'0 0.8
2017-Nov-26 13:24N 30°38' E 122°03'0 0.0
2017-Nov-26 12:58N 30°38' E 122°03'0 0.0
2017-Nov-26 08:22N 30°38' E 122°03'0 0.0
2017-Nov-26 07:52N 30°38' E 122°03'0 0.0
2017-Nov-26 07:28N 30°38' E 122°03'0 0.0
2017-Nov-26 02:01N 30°38' E 122°03'0 0.0
2017-Nov-26 01:58N 30°38' E 122°03'0 0.0
2017-Nov-26 01:28N 30°38' E 122°03'0 0.0
2017-Nov-26 01:00N 30°38' E 122°03'0 0.7
2017-Nov-26 00:30N 30°37' E 122°03'4 8.4
2017-Nov-26 00:00N 30°35' E 122°08'712.2
2017-Nov-25 23:27N 30°33' E 122°15'3 7.2
2017-Nov-25 23:00N 30°33' E 122°19'6 8.7
2017-Nov-25 22:20N 30°32' E 122°26'412.4
2017-Nov-25 21:59N 30°32' E 122°30'612.4
2017-Nov-25 21:28N 30°30' E 122°38'1812.1
2017-Nov-25 19:59N 30°21' E 122°56'430 9.8
2017-Nov-24 00:00N 24°13' E 118°46'815.4
2017-Nov-23 23:31N 24°09' E 118°39'815.4
2017-Nov-23 23:00N 24°04' E 118°33'715.1
2017-Nov-23 22:31N 23°59' E 118°26'815.0
2017-Nov-23 22:00N 23°55' E 118°20'914.4
2017-Nov-23 21:23N 23°50' E 118°11'  
2017-Nov-17 09:41N 01°15' E 104°05'317.1
2017-Nov-17 09:30N 01°15' E 104°02'817.1
2017-Nov-17 09:00N 01°12' E 103°53'917.3
2017-Nov-17 08:31N 01°08' E 103°46'917.3
2017-Nov-17 08:00N 01°03' E 103°39'816.1
2017-Nov-17 07:30N 01°06' E 103°32'816.3
2017-Nov-17 07:00N 01°11' E 103°25'  

Dump ship's entire track history